sensor_id;sensor_type;location;lat;lon;timestamp;pressure;altitude;pressure_sealevel;temperature;humidity
68807;BME280;55800;54.272;18.558;2023-01-26T00:01:37;101822.31;;;-0.84;74.70
68807;BME280;55800;54.272;18.558;2023-01-26T00:04:06;101814.44;;;-0.85;74.33
68807;BME280;55800;54.272;18.558;2023-01-26T00:06:36;101795.16;;;-0.86;74.56
68807;BME280;55800;54.272;18.558;2023-01-26T00:09:05;101797.78;;;-0.86;74.65
68807;BME280;55800;54.272;18.558;2023-01-26T00:11:36;101792.56;;;-0.84;74.57
68807;BME280;55800;54.272;18.558;2023-01-26T00:14:06;101787.31;;;-0.84;74.53
68807;BME280;55800;54.272;18.558;2023-01-26T00:16:35;101783.84;;;-0.83;74.42
68807;BME280;55800;54.272;18.558;2023-01-26T00:19:05;101768.94;;;-0.84;74.48
68807;BME280;55800;54.272;18.558;2023-01-26T00:21:34;101764.59;;;-0.82;74.40
68807;BME280;55800;54.272;18.558;2023-01-26T00:24:03;101774.25;;;-0.81;74.50
68807;BME280;55800;54.272;18.558;2023-01-26T00:26:32;101773.38;;;-0.82;74.58
68807;BME280;55800;54.272;18.558;2023-01-26T00:29:03;101786.50;;;-0.80;74.64
68807;BME280;55800;54.272;18.558;2023-01-26T00:31:33;101781.22;;;-0.83;74.46
68807;BME280;55800;54.272;18.558;2023-01-26T00:34:02;101777.72;;;-0.82;74.74
68807;BME280;55800;54.272;18.558;2023-01-26T00:36:31;101773.34;;;-0.83;74.47
68807;BME280;55800;54.272;18.558;2023-01-26T00:39:02;101773.34;;;-0.83;74.48
68807;BME280;55800;54.272;18.558;2023-01-26T00:41:31;101772.47;;;-0.82;74.65
68807;BME280;55800;54.272;18.558;2023-01-26T00:44:19;101769.84;;;-0.82;74.87
68807;BME280;55800;54.272;18.558;2023-01-26T00:46:48;101770.75;;;-0.80;74.73
68807;BME280;55800;54.272;18.558;2023-01-26T00:49:17;101770.81;;;-0.78;74.70
68807;BME280;55800;54.272;18.558;2023-01-26T00:51:46;101767.22;;;-0.82;74.80
68807;BME280;55800;54.272;18.558;2023-01-26T00:54:16;101761.97;;;-0.82;74.69
68807;BME280;55800;54.272;18.558;2023-01-26T00:56:46;101762.00;;;-0.81;74.71
68807;BME280;55800;54.272;18.558;2023-01-26T00:59:15;101747.13;;;-0.82;74.67
68807;BME280;55800;54.272;18.558;2023-01-26T01:01:47;101740.97;;;-0.82;74.78
68807;BME280;55800;54.272;18.558;2023-01-26T01:04:17;101736.63;;;-0.80;74.65
68807;BME280;55800;54.272;18.558;2023-01-26T01:06:46;101734.00;;;-0.80;74.52
68807;BME280;55800;54.272;18.558;2023-01-26T01:09:17;101734.00;;;-0.80;74.49
68807;BME280;55800;54.272;18.558;2023-01-26T01:11:46;101727.06;;;-0.78;74.41
68807;BME280;55800;54.272;18.558;2023-01-26T01:14:16;101728.84;;;-0.77;74.46
68807;BME280;55800;54.272;18.558;2023-01-26T01:16:47;101720.97;;;-0.77;74.47
68807;BME280;55800;54.272;18.558;2023-01-26T01:19:17;101714.91;;;-0.74;74.77
68807;BME280;55800;54.272;18.558;2023-01-26T01:21:46;101715.72;;;-0.75;74.56
68807;BME280;55800;54.272;18.558;2023-01-26T01:24:15;101723.59;;;-0.77;74.76
68807;BME280;55800;54.272;18.558;2023-01-26T01:26:44;101719.25;;;-0.75;74.56
68807;BME280;55800;54.272;18.558;2023-01-26T01:29:14;101721.88;;;-0.75;74.52
68807;BME280;55800;54.272;18.558;2023-01-26T01:31:43;101715.72;;;-0.75;74.52
68807;BME280;55800;54.272;18.558;2023-01-26T01:34:14;101724.47;;;-0.76;74.34
68807;BME280;55800;54.272;18.558;2023-01-26T01:36:43;101717.53;;;-0.74;74.54
68807;BME280;55800;54.272;18.558;2023-01-26T01:39:13;101724.53;;;-0.73;74.45
68807;BME280;55800;54.272;18.558;2023-01-26T01:41:42;101716.66;;;-0.72;74.41
68807;BME280;55800;54.272;18.558;2023-01-26T01:44:13;101721.09;;;-0.71;74.31
68807;BME280;55800;54.272;18.558;2023-01-26T01:46:49;101716.75;;;-0.69;74.35
68807;BME280;55800;54.272;18.558;2023-01-26T01:49:25;101714.97;;;-0.70;74.32
68807;BME280;55800;54.272;18.558;2023-01-26T01:51:58;101722.91;;;-0.68;74.30
68807;BME280;55800;54.272;18.558;2023-01-26T01:54:33;101715.03;;;-0.67;74.42
68807;BME280;55800;54.272;18.558;2023-01-26T01:57:06;101712.41;;;-0.67;74.45
68807;BME280;55800;54.272;18.558;2023-01-26T01:59:45;101711.56;;;-0.66;74.31
68807;BME280;55800;54.272;18.558;2023-01-26T02:02:15;101703.72;;;-0.64;74.37
68807;BME280;55800;54.272;18.558;2023-01-26T02:04:48;101696.75;;;-0.64;74.35
68807;BME280;55800;54.272;18.558;2023-01-26T02:07:17;101690.59;;;-0.64;74.43
68807;BME280;55800;54.272;18.558;2023-01-26T02:09:47;101688.84;;;-0.64;74.46
68807;BME280;55800;54.272;18.558;2023-01-26T02:12:34;101684.47;;;-0.63;74.37
68807;BME280;55800;54.272;18.558;2023-01-26T02:15:05;101679.22;;;-0.63;74.32
68807;BME280;55800;54.272;18.558;2023-01-26T02:17:34;101681.91;;;-0.62;74.26
68807;BME280;55800;54.272;18.558;2023-01-26T02:20:13;101673.16;;;-0.61;74.29
68807;BME280;55800;54.272;18.558;2023-01-26T02:22:52;101683.66;;;-0.61;74.43
68807;BME280;55800;54.272;18.558;2023-01-26T02:25:32;101672.25;;;-0.61;74.48
68807;BME280;55800;54.272;18.558;2023-01-26T02:28:05;101668.78;;;-0.60;74.45
68807;BME280;55800;54.272;18.558;2023-01-26T02:30:34;101662.63;;;-0.61;74.53
68807;BME280;55800;54.272;18.558;2023-01-26T02:33:03;101664.44;;;-0.60;74.39
68807;BME280;55800;54.272;18.558;2023-01-26T02:35:34;101672.31;;;-0.60;74.31
68807;BME280;55800;54.272;18.558;2023-01-26T02:38:03;101661.81;;;-0.60;74.28
68807;BME280;55800;54.272;18.558;2023-01-26T02:40:42;101657.47;;;-0.58;74.46
68807;BME280;55800;54.272;18.558;2023-01-26T02:43:16;101664.44;;;-0.58;74.35
68807;BME280;55800;54.272;18.558;2023-01-26T02:45:45;101655.72;;;-0.57;74.30
68807;BME280;55800;54.272;18.558;2023-01-26T02:48:15;101655.75;;;-0.56;74.27
68807;BME280;55800;54.272;18.558;2023-01-26T02:51:05;101654.00;;;-0.55;74.37
68807;BME280;55800;54.272;18.558;2023-01-26T02:53:33;101647.06;;;-0.53;74.26
68807;BME280;55800;54.272;18.558;2023-01-26T02:56:03;101645.28;;;-0.53;74.21
68807;BME280;55800;54.272;18.558;2023-01-26T02:58:33;101641.81;;;-0.52;74.14
68807;BME280;55800;54.272;18.558;2023-01-26T03:01:02;101644.44;;;-0.52;74.29
68807;BME280;55800;54.272;18.558;2023-01-26T03:03:31;101645.34;;;-0.50;74.23
68807;BME280;55800;54.272;18.558;2023-01-26T03:06:10;101642.72;;;-0.50;74.33
68807;BME280;55800;54.272;18.558;2023-01-26T03:08:40;101640.09;;;-0.50;74.37
68807;BME280;55800;54.272;18.558;2023-01-26T03:11:09;101638.38;;;-0.48;74.24
68807;BME280;55800;54.272;18.558;2023-01-26T03:13:41;101635.75;;;-0.48;74.26
68807;BME280;55800;54.272;18.558;2023-01-26T03:16:10;101642.81;;;-0.45;74.18
68807;BME280;55800;54.272;18.558;2023-01-26T03:18:41;101635.78;;;-0.46;74.37
68807;BME280;55800;54.272;18.558;2023-01-26T03:21:27;101647.19;;;-0.46;74.25
68807;BME280;55800;54.272;18.558;2023-01-26T03:24:14;101647.19;;;-0.46;74.26
68807;BME280;55800;54.272;18.558;2023-01-26T03:27:04;101652.44;;;-0.46;74.23
68807;BME280;55800;54.272;18.558;2023-01-26T03:29:53;101642.81;;;-0.45;74.34
68807;BME280;55800;54.272;18.558;2023-01-26T03:32:23;101645.47;;;-0.44;74.25
68807;BME280;55800;54.272;18.558;2023-01-26T03:34:53;101646.38;;;-0.43;74.22
68807;BME280;55800;54.272;18.558;2023-01-26T03:37:24;101644.63;;;-0.43;74.39
68807;BME280;55800;54.272;18.558;2023-01-26T03:40:00;101642.00;;;-0.43;74.14
68807;BME280;55800;54.272;18.558;2023-01-26T03:42:47;101641.16;;;-0.40;74.28
68807;BME280;55800;54.272;18.558;2023-01-26T03:45:35;101632.41;;;-0.41;74.27
68807;BME280;55800;54.272;18.558;2023-01-26T03:48:25;101638.56;;;-0.39;74.20
68807;BME280;55800;54.272;18.558;2023-01-26T03:51:12;101637.69;;;-0.39;74.22
68807;BME280;55800;54.272;18.558;2023-01-26T03:53:59;101632.41;;;-0.41;74.43
68807;BME280;55800;54.272;18.558;2023-01-26T03:56:45;101629.81;;;-0.38;74.23
68807;BME280;55800;54.272;18.558;2023-01-26T03:59:17;101629.81;;;-0.38;74.29
68807;BME280;55800;54.272;18.558;2023-01-26T04:02:11;101630.72;;;-0.37;74.21
68807;BME280;55800;54.272;18.558;2023-01-26T04:04:59;101634.22;;;-0.37;74.37
68807;BME280;55800;54.272;18.558;2023-01-26T04:07:49;101634.22;;;-0.37;74.34
68807;BME280;55800;54.272;18.558;2023-01-26T04:10:36;101629.88;;;-0.35;74.39
68807;BME280;55800;54.272;18.558;2023-01-26T04:13:05;101636.88;;;-0.34;74.34
68807;BME280;55800;54.272;18.558;2023-01-26T04:15:58;101641.31;;;-0.33;74.34
68807;BME280;55800;54.272;18.558;2023-01-26T04:18:46;101634.25;;;-0.34;74.33
68807;BME280;55800;54.272;18.558;2023-01-26T04:21:34;101624.66;;;-0.32;74.38
68807;BME280;55800;54.272;18.558;2023-01-26T04:24:12;101615.94;;;-0.32;74.36
68807;BME280;55800;54.272;18.558;2023-01-26T04:26:45;101607.16;;;-0.31;74.24
68807;BME280;55800;54.272;18.558;2023-01-26T04:29:22;101605.44;;;-0.31;74.35
68807;BME280;55800;54.272;18.558;2023-01-26T04:31:51;101600.19;;;-0.31;74.34
68807;BME280;55800;54.272;18.558;2023-01-26T04:34:23;101597.56;;;-0.29;74.20
68807;BME280;55800;54.272;18.558;2023-01-26T04:36:53;101594.91;;;-0.31;74.30
68807;BME280;55800;54.272;18.558;2023-01-26T04:39:26;101599.28;;;-0.31;74.24
68807;BME280;55800;54.272;18.558;2023-01-26T04:41:56;101596.63;;;-0.33;74.37
68807;BME280;55800;54.272;18.558;2023-01-26T04:44:26;101585.25;;;-0.33;74.28
68807;BME280;55800;54.272;18.558;2023-01-26T04:46:55;101596.63;;;-0.33;74.25
68807;BME280;55800;54.272;18.558;2023-01-26T04:49:26;101593.13;;;-0.33;74.25
68807;BME280;55800;54.272;18.558;2023-01-26T04:51:56;101601.00;;;-0.33;74.29
68807;BME280;55800;54.272;18.558;2023-01-26T04:54:26;101595.72;;;-0.36;74.58
68807;BME280;55800;54.272;18.558;2023-01-26T04:56:55;101598.34;;;-0.35;74.60
68807;BME280;55800;54.272;18.558;2023-01-26T04:59:25;101594.84;;;-0.34;74.43
68807;BME280;55800;54.272;18.558;2023-01-26T05:01:58;101593.94;;;-0.36;74.24
68807;BME280;55800;54.272;18.558;2023-01-26T05:04:30;101591.31;;;-0.36;74.38
68807;BME280;55800;54.272;18.558;2023-01-26T05:06:59;101593.09;;;-0.35;74.30
68807;BME280;55800;54.272;18.558;2023-01-26T05:09:29;101588.69;;;-0.36;74.40
68807;BME280;55800;54.272;18.558;2023-01-26T05:12:33;101593.09;;;-0.35;74.33
68807;BME280;55800;54.272;18.558;2023-01-26T05:15:22;101588.75;;;-0.34;74.37
68807;BME280;55800;54.272;18.558;2023-01-26T05:18:02;101593.13;;;-0.32;74.39
68807;BME280;55800;54.272;18.558;2023-01-26T05:20:39;101594.91;;;-0.31;74.45
68807;BME280;55800;54.272;18.558;2023-01-26T05:23:23;101594.91;;;-0.32;74.73
68807;BME280;55800;54.272;18.558;2023-01-26T05:26:21;101597.56;;;-0.31;74.63
68807;BME280;55800;54.272;18.558;2023-01-26T05:28:56;101596.72;;;-0.30;74.76
68807;BME280;55800;54.272;18.558;2023-01-26T05:31:26;101609.78;;;-0.31;74.48
68807;BME280;55800;54.272;18.558;2023-01-26T05:33:55;101600.09;;;-0.34;74.61
68807;BME280;55800;54.272;18.558;2023-01-26T05:36:26;101605.38;;;-0.34;74.68
68807;BME280;55800;54.272;18.558;2023-01-26T05:38:56;101600.97;;;-0.36;74.80
68807;BME280;55800;54.272;18.558;2023-01-26T05:41:27;101601.81;;;-0.37;74.75
68807;BME280;55800;54.272;18.558;2023-01-26T05:44:25;101614.06;;;-0.38;74.63
68807;BME280;55800;54.272;18.558;2023-01-26T05:47:02;101613.19;;;-0.38;74.67
68807;BME280;55800;54.272;18.558;2023-01-26T05:49:31;101611.38;;;-0.41;74.70
68807;BME280;55800;54.272;18.558;2023-01-26T05:52:06;101609.59;;;-0.42;74.58
68807;BME280;55800;54.272;18.558;2023-01-26T05:54:36;101609.66;;;-0.39;74.87
68807;BME280;55800;54.272;18.558;2023-01-26T05:57:05;101605.31;;;-0.37;74.58
68807;BME280;55800;54.272;18.558;2023-01-26T05:59:38;101616.66;;;-0.39;74.52
68807;BME280;55800;54.272;18.558;2023-01-26T06:02:10;101608.75;;;-0.41;74.63
68807;BME280;55800;54.272;18.558;2023-01-26T06:04:43;101612.22;;;-0.42;74.90
68807;BME280;55800;54.272;18.558;2023-01-26T06:07:13;101617.56;;;-0.39;74.45
68807;BME280;55800;54.272;18.558;2023-01-26T06:09:50;101614.84;;;-0.42;74.66
68807;BME280;55800;54.272;18.558;2023-01-26T06:12:40;101621.03;;;-0.40;74.74
68807;BME280;55800;54.272;18.558;2023-01-26T06:15:38;101613.94;;;-0.44;74.83
68807;BME280;55800;54.272;18.558;2023-01-26T06:18:07;101615.66;;;-0.46;74.95
68807;BME280;55800;54.272;18.558;2023-01-26T06:20:37;101618.25;;;-0.47;75.01
68807;BME280;55800;54.272;18.558;2023-01-26T06:23:09;101610.41;;;-0.46;74.91
68807;BME280;55800;54.272;18.558;2023-01-26T06:25:40;101622.69;;;-0.45;74.92
68807;BME280;55800;54.272;18.558;2023-01-26T06:28:09;101615.72;;;-0.43;74.83
68807;BME280;55800;54.272;18.558;2023-01-26T06:30:38;101617.50;;;-0.40;74.75
68807;BME280;55800;54.272;18.558;2023-01-26T06:33:11;101620.03;;;-0.46;74.69
68807;BME280;55800;54.272;18.558;2023-01-26T06:35:40;101617.38;;;-0.48;74.78
68807;BME280;55800;54.272;18.558;2023-01-26T06:38:13;101619.16;;;-0.47;74.65
68807;BME280;55800;54.272;18.558;2023-01-26T06:40:44;101613.00;;;-0.47;74.85
68807;BME280;55800;54.272;18.558;2023-01-26T06:43:13;101612.06;;;-0.51;74.94
68807;BME280;55800;54.272;18.558;2023-01-26T06:45:43;101610.28;;;-0.52;75.17
68807;BME280;55800;54.272;18.558;2023-01-26T06:48:15;101612.94;;;-0.50;74.97
68807;BME280;55800;54.272;18.558;2023-01-26T06:50:45;101608.59;;;-0.50;75.11
68807;BME280;55800;54.272;18.558;2023-01-26T06:53:29;101612.19;;;-0.45;74.91
68807;BME280;55800;54.272;18.558;2023-01-26T06:56:33;101620.03;;;-0.46;74.70
68807;BME280;55800;54.272;18.558;2023-01-26T06:59:18;101617.44;;;-0.45;74.62
68807;BME280;55800;54.272;18.558;2023-01-26T07:02:11;101619.19;;;-0.44;74.68
68807;BME280;55800;54.272;18.558;2023-01-26T07:04:44;101614.81;;;-0.45;74.74
68807;BME280;55800;54.272;18.558;2023-01-26T07:07:14;101616.59;;;-0.42;74.71
68807;BME280;55800;54.272;18.558;2023-01-26T07:09:44;101618.38;;;-0.41;74.56
68807;BME280;55800;54.272;18.558;2023-01-26T07:12:14;101609.59;;;-0.42;74.67
68807;BME280;55800;54.272;18.558;2023-01-26T07:14:43;101612.31;;;-0.39;74.67
68807;BME280;55800;54.272;18.558;2023-01-26T07:17:12;101606.16;;;-0.38;74.67
68807;BME280;55800;54.272;18.558;2023-01-26T07:19:41;101609.72;;;-0.36;74.58
68807;BME280;55800;54.272;18.558;2023-01-26T07:22:13;101597.47;;;-0.35;74.57
68807;BME280;55800;54.272;18.558;2023-01-26T07:24:44;101603.63;;;-0.33;74.64
68807;BME280;55800;54.272;18.558;2023-01-26T07:27:13;101600.97;;;-0.35;74.80
68807;BME280;55800;54.272;18.558;2023-01-26T07:29:42;101594.00;;;-0.34;74.73
68807;BME280;55800;54.272;18.558;2023-01-26T07:32:13;101598.38;;;-0.32;74.72
68807;BME280;55800;54.272;18.558;2023-01-26T07:34:42;101596.63;;;-0.33;74.63
68807;BME280;55800;54.272;18.558;2023-01-26T07:37:11;101602.81;;;-0.31;74.66
68807;BME280;55800;54.272;18.558;2023-01-26T07:39:41;101609.88;;;-0.27;74.78
68807;BME280;55800;54.272;18.558;2023-01-26T07:42:12;101602.88;;;-0.28;74.75
68807;BME280;55800;54.272;18.558;2023-01-26T07:44:47;101599.38;;;-0.25;74.58
68807;BME280;55800;54.272;18.558;2023-01-26T07:47:16;101594.19;;;-0.24;74.82
68807;BME280;55800;54.272;18.558;2023-01-26T07:49:46;101587.16;;;-0.23;74.88
68807;BME280;55800;54.272;18.558;2023-01-26T07:52:16;101591.59;;;-0.21;74.80
68807;BME280;55800;54.272;18.558;2023-01-26T07:54:45;101582.88;;;-0.17;74.77
68807;BME280;55800;54.272;18.558;2023-01-26T07:57:16;101582.06;;;-0.14;74.57
68807;BME280;55800;54.272;18.558;2023-01-26T07:59:45;101575.97;;;-0.12;74.86
68807;BME280;55800;54.272;18.558;2023-01-26T08:02:14;101564.59;;;-0.11;74.83
68807;BME280;55800;54.272;18.558;2023-01-26T08:04:44;101572.59;;;-0.05;74.53
68807;BME280;55800;54.272;18.558;2023-01-26T08:07:13;101569.09;;;-0.05;74.70
68807;BME280;55800;54.272;18.558;2023-01-26T08:09:42;101565.56;;;-0.04;74.74
68807;BME280;55800;54.272;18.558;2023-01-26T08:12:12;101560.38;;;-0.03;74.76
68807;BME280;55800;54.272;18.558;2023-01-26T08:14:42;101560.41;;;0.00;74.63
68807;BME280;55800;54.272;18.558;2023-01-26T08:17:14;101561.28;;;0.01;74.90
68807;BME280;55800;54.272;18.558;2023-01-26T08:19:44;101562.22;;;0.05;74.89
68807;BME280;55800;54.272;18.558;2023-01-26T08:22:14;101569.25;;;0.06;74.95
68807;BME280;55800;54.272;18.558;2023-01-26T08:24:43;101561.44;;;0.10;74.91
68807;BME280;55800;54.272;18.558;2023-01-26T08:27:12;101567.59;;;0.12;74.91
68807;BME280;55800;54.272;18.558;2023-01-26T08:29:43;101558.91;;;0.16;74.81
68807;BME280;55800;54.272;18.558;2023-01-26T08:32:13;101556.34;;;0.21;74.83
68807;BME280;55800;54.272;18.558;2023-01-26T08:34:42;101548.47;;;0.22;74.86
68807;BME280;55800;54.272;18.558;2023-01-26T08:37:11;101552.00;;;0.26;74.98
68807;BME280;55800;54.272;18.558;2023-01-26T08:39:40;101553.00;;;0.32;74.86
68807;BME280;55800;54.272;18.558;2023-01-26T08:42:10;101559.22;;;0.39;74.80
68807;BME280;55800;54.272;18.558;2023-01-26T08:44:39;101569.81;;;0.45;74.73
68807;BME280;55800;54.272;18.558;2023-01-26T08:47:09;101557.56;;;0.45;75.08
68807;BME280;55800;54.272;18.558;2023-01-26T08:49:38;101564.63;;;0.48;74.93
68807;BME280;55800;54.272;18.558;2023-01-26T08:52:08;101558.47;;;0.47;74.92
68807;BME280;55800;54.272;18.558;2023-01-26T08:54:37;101563.75;;;0.49;74.93
68807;BME280;55800;54.272;18.558;2023-01-26T08:57:07;101563.81;;;0.52;75.04
68807;BME280;55800;54.272;18.558;2023-01-26T08:59:36;101563.81;;;0.53;75.11
68807;BME280;55800;54.272;18.558;2023-01-26T09:02:07;101556.00;;;0.59;74.99
68807;BME280;55800;54.272;18.558;2023-01-26T09:04:39;101554.25;;;0.60;74.83
68807;BME280;55800;54.272;18.558;2023-01-26T09:07:08;101550.78;;;0.61;74.78
68807;BME280;55800;54.272;18.558;2023-01-26T09:09:40;101543.78;;;0.63;74.91
68807;BME280;55800;54.272;18.558;2023-01-26T09:12:09;101549.97;;;0.68;74.60
68807;BME280;55800;54.272;18.558;2023-01-26T09:14:38;101542.97;;;0.68;74.86
68807;BME280;55800;54.272;18.558;2023-01-26T09:17:08;101541.22;;;0.67;75.11
68807;BME280;55800;54.272;18.558;2023-01-26T09:19:39;101539.50;;;0.71;75.06
68807;BME280;55800;54.272;18.558;2023-01-26T09:22:11;101545.63;;;0.70;74.85
68807;BME280;55800;54.272;18.558;2023-01-26T09:24:40;101546.53;;;0.72;74.89
68807;BME280;55800;54.272;18.558;2023-01-26T09:27:10;101543.91;;;0.72;74.95
68807;BME280;55800;54.272;18.558;2023-01-26T09:29:39;101539.50;;;0.71;74.95
68807;BME280;55800;54.272;18.558;2023-01-26T09:32:08;101533.41;;;0.75;75.04
68807;BME280;55800;54.272;18.558;2023-01-26T09:34:39;101541.28;;;0.75;74.91
68807;BME280;55800;54.272;18.558;2023-01-26T09:37:11;101540.47;;;0.77;74.93
68807;BME280;55800;54.272;18.558;2023-01-26T09:39:42;101544.00;;;0.81;74.99
68807;BME280;55800;54.272;18.558;2023-01-26T09:42:26;101541.41;;;0.84;74.94
68807;BME280;55800;54.272;18.558;2023-01-26T09:45:23;101543.16;;;0.84;74.89
68807;BME280;55800;54.272;18.558;2023-01-26T09:48:16;101545.81;;;0.85;74.96
68807;BME280;55800;54.272;18.558;2023-01-26T09:50:59;101542.31;;;0.88;74.88
68807;BME280;55800;54.272;18.558;2023-01-26T09:53:39;101546.75;;;0.89;75.06
68807;BME280;55800;54.272;18.558;2023-01-26T09:56:13;101540.63;;;0.91;75.10
68807;BME280;55800;54.272;18.558;2023-01-26T09:58:48;101545.91;;;0.94;75.06
68807;BME280;55800;54.272;18.558;2023-01-26T10:01:26;101538.94;;;0.98;75.16
68807;BME280;55800;54.272;18.558;2023-01-26T10:04:03;101542.50;;;1.01;74.91
68807;BME280;55800;54.272;18.558;2023-01-26T10:06:39;101540.78;;;1.06;74.91
68807;BME280;55800;54.272;18.558;2023-01-26T10:09:18;101532.00;;;1.04;75.07
68807;BME280;55800;54.272;18.558;2023-01-26T10:11:53;101532.03;;;1.07;74.98
68807;BME280;55800;54.272;18.558;2023-01-26T10:14:31;101534.69;;;1.09;75.08
68807;BME280;55800;54.272;18.558;2023-01-26T10:17:04;101544.31;;;1.08;75.16
68807;BME280;55800;54.272;18.558;2023-01-26T10:19:36;101536.47;;;1.10;75.09
68807;BME280;55800;54.272;18.558;2023-01-26T10:22:14;101533.88;;;1.14;75.12
68807;BME280;55800;54.272;18.558;2023-01-26T10:24:49;101535.63;;;1.14;75.12
68807;BME280;55800;54.272;18.558;2023-01-26T10:27:20;101537.41;;;1.16;75.23
68807;BME280;55800;54.272;18.558;2023-01-26T10:29:49;101535.63;;;1.15;75.19
68807;BME280;55800;54.272;18.558;2023-01-26T10:32:18;101526.88;;;1.16;75.23
68807;BME280;55800;54.272;18.558;2023-01-26T10:34:49;101524.25;;;1.19;75.34
68807;BME280;55800;54.272;18.558;2023-01-26T10:37:22;101518.13;;;1.20;75.34
68807;BME280;55800;54.272;18.558;2023-01-26T10:39:59;101526.94;;;1.24;75.16
68807;BME280;55800;54.272;18.558;2023-01-26T10:42:31;101528.72;;;1.26;75.30
68807;BME280;55800;54.272;18.558;2023-01-26T10:45:03;101529.63;;;1.27;75.27
68807;BME280;55800;54.272;18.558;2023-01-26T10:47:36;101538.38;;;1.27;75.26
68807;BME280;55800;54.272;18.558;2023-01-26T10:50:21;101534.03;;;1.29;75.14
68807;BME280;55800;54.272;18.558;2023-01-26T10:53:00;101519.97;;;1.30;75.32
68807;BME280;55800;54.272;18.558;2023-01-26T10:55:31;101521.78;;;1.34;75.15
68807;BME280;55800;54.272;18.558;2023-01-26T10:58:04;101511.22;;;1.31;75.12
68807;BME280;55800;54.272;18.558;2023-01-26T11:00:34;101520.88;;;1.32;75.10
68807;BME280;55800;54.272;18.558;2023-01-26T11:03:17;101514.75;;;1.35;75.19
68807;BME280;55800;54.272;18.558;2023-01-26T11:06:05;101514.78;;;1.36;75.18
68807;BME280;55800;54.272;18.558;2023-01-26T11:08:37;101514.75;;;1.33;75.11
68807;BME280;55800;54.272;18.558;2023-01-26T11:11:23;101513.91;;;1.39;75.12
68807;BME280;55800;54.272;18.558;2023-01-26T11:14:11;101517.44;;;1.39;75.28
68807;BME280;55800;54.272;18.558;2023-01-26T11:16:44;101513.91;;;1.39;75.20
68807;BME280;55800;54.272;18.558;2023-01-26T11:19:26;101513.06;;;1.40;75.42
68807;BME280;55800;54.272;18.558;2023-01-26T11:22:04;101507.81;;;1.41;75.36
68807;BME280;55800;54.272;18.558;2023-01-26T11:24:40;101506.97;;;1.45;75.44
68807;BME280;55800;54.272;18.558;2023-01-26T11:27:35;101504.34;;;1.48;75.23
68807;BME280;55800;54.272;18.558;2023-01-26T11:30:33;101496.47;;;1.50;75.25
68807;BME280;55800;54.272;18.558;2023-01-26T11:33:12;101497.38;;;1.52;75.35
68807;BME280;55800;54.272;18.558;2023-01-26T11:35:50;101496.53;;;1.57;75.08
68807;BME280;55800;54.272;18.558;2023-01-26T11:38:37;101494.78;;;1.56;75.05
68807;BME280;55800;54.272;18.558;2023-01-26T11:41:19;101490.44;;;1.65;74.82
68807;BME280;55800;54.272;18.558;2023-01-26T11:43:58;101493.06;;;1.63;74.91
68807;BME280;55800;54.272;18.558;2023-01-26T11:46:45;101483.38;;;1.61;74.98
68807;BME280;55800;54.272;18.558;2023-01-26T11:49:29;101482.50;;;1.60;75.21
68807;BME280;55800;54.272;18.558;2023-01-26T11:52:09;101477.22;;;1.62;74.99
68807;BME280;55800;54.272;18.558;2023-01-26T11:57:48;101471.19;;;1.72;74.76
68807;BME280;55800;54.272;18.558;2023-01-26T12:00:24;101458.84;;;1.71;74.64
68807;BME280;55800;54.272;18.558;2023-01-26T12:03:01;101466.72;;;1.66;74.87
68807;BME280;55800;54.272;18.558;2023-01-26T12:05:39;101469.31;;;1.62;75.06
68807;BME280;55800;54.272;18.558;2023-01-26T12:08:15;101462.25;;;1.57;75.13
68807;BME280;55800;54.272;18.558;2023-01-26T12:10:50;101460.50;;;1.56;75.32
68807;BME280;55800;54.272;18.558;2023-01-26T12:13:32;101464.03;;;1.62;74.99
68807;BME280;55800;54.272;18.558;2023-01-26T12:16:10;101464.94;;;1.61;75.01
68807;BME280;55800;54.272;18.558;2023-01-26T12:18:47;101467.53;;;1.57;75.30
68807;BME280;55800;54.272;18.558;2023-01-26T12:21:39;101463.19;;;1.63;74.92
68807;BME280;55800;54.272;18.558;2023-01-26T12:24:16;101470.19;;;1.61;74.99
68807;BME280;55800;54.272;18.558;2023-01-26T12:27:15;101457.91;;;1.63;74.97
68807;BME280;55800;54.272;18.558;2023-01-26T12:29:50;101450.81;;;1.57;75.11
68807;BME280;55800;54.272;18.558;2023-01-26T12:32:22;101447.28;;;1.52;75.32
68807;BME280;55800;54.272;18.558;2023-01-26T12:34:52;101447.28;;;1.50;75.38
68807;BME280;55800;54.272;18.558;2023-01-26T12:37:36;101442.88;;;1.49;75.47
68807;BME280;55800;54.272;18.558;2023-01-26T12:40:24;101439.38;;;1.53;75.32
68807;BME280;55800;54.272;18.558;2023-01-26T12:43:09;101433.22;;;1.51;75.22
68807;BME280;55800;54.272;18.558;2023-01-26T12:45:46;101431.44;;;1.47;75.50
68807;BME280;55800;54.272;18.558;2023-01-26T12:48:20;101435.91;;;1.54;75.13
68807;BME280;55800;54.272;18.558;2023-01-26T12:50:54;101437.69;;;1.58;74.86
68807;BME280;55800;54.272;18.558;2023-01-26T12:53:27;101426.22;;;1.53;75.04
68807;BME280;55800;54.272;18.558;2023-01-26T12:56:07;101431.44;;;1.47;75.12
68807;BME280;55800;54.272;18.558;2023-01-26T12:58:41;101423.50;;;1.44;75.43
68807;BME280;55800;54.272;18.558;2023-01-26T13:01:14;101425.28;;;1.48;75.30
68807;BME280;55800;54.272;18.558;2023-01-26T13:03:52;101425.25;;;1.42;75.46
68807;BME280;55800;54.272;18.558;2023-01-26T13:06:23;101417.34;;;1.39;75.88
68807;BME280;55800;54.272;18.558;2023-01-26T13:09:16;101420.81;;;1.37;75.86
68807;BME280;55800;54.272;18.558;2023-01-26T13:11:49;101415.59;;;1.40;75.85
68807;BME280;55800;54.272;18.558;2023-01-26T13:14:36;101408.53;;;1.39;75.73
68807;BME280;55800;54.272;18.558;2023-01-26T13:20:46;101400.59;;;1.34;75.94
68807;BME280;55800;54.272;18.558;2023-01-26T13:26:15;101409.38;;;1.35;75.76
68807;BME280;55800;54.272;18.558;2023-01-26T13:28:46;101409.38;;;1.33;75.81
68807;BME280;55800;54.272;18.558;2023-01-26T13:31:32;101405.81;;;1.28;75.98